Terminal Aerodrome Forecast
Issued by NWS

Home | Current Version | Previous Version | Text Only | Print | Product List | Glossary On
Versions: 1 2 3 4 5 6 7 8 9 10 11 12 13 14 15
542
FTUS45 KTFX 232120 AAB
TAFHVR
TAF AMD
KHVR 232120Z 2321/2418 07008KT P6SM -RA SCT020 OVC035
      TEMPO 2321/2401 5SM RA BR OVC020
     FM240200 VRB05KT P6SM OVC040
     FM240800 21005KT P6SM BKN025
     FM241100 23006KT P6SM BKN008
     FM241500 26007KT P6SM BKN025=

USA.gov is the U.S. government's official web portal to all federal, state and local government web resources and services.